sensor_id;sensor_type;location;lat;lon;timestamp;temperature;humidity
25640;DHT22;13497;48.322;16.204;2023-07-02T00:01:41;18.00;99.90
25640;DHT22;13497;48.322;16.204;2023-07-02T00:04:07;18.20;99.90
25640;DHT22;13497;48.322;16.204;2023-07-02T00:06:34;18.20;99.90
25640;DHT22;13497;48.322;16.204;2023-07-02T00:09:12;18.30;99.90
25640;DHT22;13497;48.322;16.204;2023-07-02T00:11:39;18.40;99.90
25640;DHT22;13497;48.322;16.204;2023-07-02T00:14:06;18.40;99.90
25640;DHT22;13497;48.322;16.204;2023-07-02T00:16:31;18.40;99.90
25640;DHT22;13497;48.322;16.204;2023-07-02T00:18:58;18.40;99.90
25640;DHT22;13497;48.322;16.204;2023-07-02T00:21:28;18.40;99.90
25640;DHT22;13497;48.322;16.204;2023-07-02T00:23:57;18.40;99.90
25640;DHT22;13497;48.322;16.204;2023-07-02T00:26:27;18.30;99.90
25640;DHT22;13497;48.322;16.204;2023-07-02T00:28:54;18.30;99.90
25640;DHT22;13497;48.322;16.204;2023-07-02T00:31:20;18.30;99.90
25640;DHT22;13497;48.322;16.204;2023-07-02T00:33:46;18.30;99.90
25640;DHT22;13497;48.322;16.204;2023-07-02T00:36:13;18.30;99.90
25640;DHT22;13497;48.322;16.204;2023-07-02T00:38:45;18.20;99.90
25640;DHT22;13497;48.322;16.204;2023-07-02T00:41:11;18.20;99.90
25640;DHT22;13497;48.322;16.204;2023-07-02T00:43:37;18.20;99.90
25640;DHT22;13497;48.322;16.204;2023-07-02T00:46:14;18.20;99.90
25640;DHT22;13497;48.322;16.204;2023-07-02T00:48:46;18.10;99.90
25640;DHT22;13497;48.322;16.204;2023-07-02T00:51:20;18.10;99.90
25640;DHT22;13497;48.322;16.204;2023-07-02T00:53:48;18.10;99.90
25640;DHT22;13497;48.322;16.204;2023-07-02T00:56:15;18.00;99.90
25640;DHT22;13497;48.322;16.204;2023-07-02T00:58:41;17.90;99.90
25640;DHT22;13497;48.322;16.204;2023-07-02T01:01:22;17.90;99.90
25640;DHT22;13497;48.322;16.204;2023-07-02T01:04:01;17.90;99.90
25640;DHT22;13497;48.322;16.204;2023-07-02T01:06:28;17.90;99.90
25640;DHT22;13497;48.322;16.204;2023-07-02T01:08:57;17.80;99.90
25640;DHT22;13497;48.322;16.204;2023-07-02T01:11:33;17.80;99.90
25640;DHT22;13497;48.322;16.204;2023-07-02T01:14:05;17.70;99.90
25640;DHT22;13497;48.322;16.204;2023-07-02T01:16:31;17.70;99.90
25640;DHT22;13497;48.322;16.204;2023-07-02T01:18:59;17.60;99.90
25640;DHT22;13497;48.322;16.204;2023-07-02T01:21:28;17.60;99.90
25640;DHT22;13497;48.322;16.204;2023-07-02T01:23:54;17.50;99.90
25640;DHT22;13497;48.322;16.204;2023-07-02T01:26:20;17.40;99.90
25640;DHT22;13497;48.322;16.204;2023-07-02T01:28:46;17.40;99.90
25640;DHT22;13497;48.322;16.204;2023-07-02T01:31:11;17.30;99.90
25640;DHT22;13497;48.322;16.204;2023-07-02T01:33:37;17.30;99.90
25640;DHT22;13497;48.322;16.204;2023-07-02T01:36:03;17.30;99.90
25640;DHT22;13497;48.322;16.204;2023-07-02T01:38:29;17.30;99.90
25640;DHT22;13497;48.322;16.204;2023-07-02T01:40:55;17.30;99.90
25640;DHT22;13497;48.322;16.204;2023-07-02T01:43:21;17.20;99.90
25640;DHT22;13497;48.322;16.204;2023-07-02T01:45:48;17.20;99.90
25640;DHT22;13497;48.322;16.204;2023-07-02T01:48:13;17.20;99.90
25640;DHT22;13497;48.322;16.204;2023-07-02T01:50:39;17.20;99.90
25640;DHT22;13497;48.322;16.204;2023-07-02T01:53:05;17.10;99.90
25640;DHT22;13497;48.322;16.204;2023-07-02T01:55:30;17.10;99.90
25640;DHT22;13497;48.322;16.204;2023-07-02T01:57:56;17.10;99.90
25640;DHT22;13497;48.322;16.204;2023-07-02T02:00:21;17.10;99.90
25640;DHT22;13497;48.322;16.204;2023-07-02T02:02:47;17.10;99.90
25640;DHT22;13497;48.322;16.204;2023-07-02T02:05:13;17.00;99.90
25640;DHT22;13497;48.322;16.204;2023-07-02T02:07:38;17.00;99.90
25640;DHT22;13497;48.322;16.204;2023-07-02T02:10:05;16.90;99.90
25640;DHT22;13497;48.322;16.204;2023-07-02T02:12:31;17.00;99.90
25640;DHT22;13497;48.322;16.204;2023-07-02T02:14:57;17.00;99.90
25640;DHT22;13497;48.322;16.204;2023-07-02T02:17:22;17.00;99.90
25640;DHT22;13497;48.322;16.204;2023-07-02T02:19:49;17.00;99.90
25640;DHT22;13497;48.322;16.204;2023-07-02T02:22:16;17.00;99.90
25640;DHT22;13497;48.322;16.204;2023-07-02T02:24:42;17.00;99.90
25640;DHT22;13497;48.322;16.204;2023-07-02T02:27:07;17.00;99.90
25640;DHT22;13497;48.322;16.204;2023-07-02T02:29:34;17.10;99.90
25640;DHT22;13497;48.322;16.204;2023-07-02T02:32:00;17.00;99.90
25640;DHT22;13497;48.322;16.204;2023-07-02T02:34:25;17.10;99.90
25640;DHT22;13497;48.322;16.204;2023-07-02T02:36:51;17.20;99.90
25640;DHT22;13497;48.322;16.204;2023-07-02T02:39:17;17.20;99.90
25640;DHT22;13497;48.322;16.204;2023-07-02T02:41:43;17.20;99.90
25640;DHT22;13497;48.322;16.204;2023-07-02T02:44:08;17.30;99.90
25640;DHT22;13497;48.322;16.204;2023-07-02T02:46:34;17.40;99.90
25640;DHT22;13497;48.322;16.204;2023-07-02T02:49:00;17.50;99.90
25640;DHT22;13497;48.322;16.204;2023-07-02T02:51:25;17.60;99.90
25640;DHT22;13497;48.322;16.204;2023-07-02T02:53:51;17.70;99.90
25640;DHT22;13497;48.322;16.204;2023-07-02T02:56:17;17.80;99.90
25640;DHT22;13497;48.322;16.204;2023-07-02T02:58:43;17.90;99.90
25640;DHT22;13497;48.322;16.204;2023-07-02T03:01:09;17.90;99.90
25640;DHT22;13497;48.322;16.204;2023-07-02T03:03:38;18.10;99.90
25640;DHT22;13497;48.322;16.204;2023-07-02T03:06:05;18.10;99.90
25640;DHT22;13497;48.322;16.204;2023-07-02T03:08:30;18.20;99.90
25640;DHT22;13497;48.322;16.204;2023-07-02T03:10:56;18.20;99.90
25640;DHT22;13497;48.322;16.204;2023-07-02T03:13:22;18.30;99.90
25640;DHT22;13497;48.322;16.204;2023-07-02T03:15:48;18.30;99.90
25640;DHT22;13497;48.322;16.204;2023-07-02T03:18:14;18.30;99.90
25640;DHT22;13497;48.322;16.204;2023-07-02T03:20:39;18.40;99.90
25640;DHT22;13497;48.322;16.204;2023-07-02T03:23:05;18.40;99.90
25640;DHT22;13497;48.322;16.204;2023-07-02T03:25:30;18.50;99.90
25640;DHT22;13497;48.322;16.204;2023-07-02T03:27:56;18.70;99.90
25640;DHT22;13497;48.322;16.204;2023-07-02T03:30:22;18.80;99.90
25640;DHT22;13497;48.322;16.204;2023-07-02T03:32:47;18.90;99.90
25640;DHT22;13497;48.322;16.204;2023-07-02T03:35:13;19.10;99.90
25640;DHT22;13497;48.322;16.204;2023-07-02T03:37:39;19.20;99.90
25640;DHT22;13497;48.322;16.204;2023-07-02T03:40:09;19.30;99.90
25640;DHT22;13497;48.322;16.204;2023-07-02T03:42:34;19.30;99.90
25640;DHT22;13497;48.322;16.204;2023-07-02T03:45:00;19.40;99.90
25640;DHT22;13497;48.322;16.204;2023-07-02T03:47:26;19.50;99.90
25640;DHT22;13497;48.322;16.204;2023-07-02T03:49:51;19.50;99.90
25640;DHT22;13497;48.322;16.204;2023-07-02T03:52:17;19.50;99.90
25640;DHT22;13497;48.322;16.204;2023-07-02T03:54:43;19.60;99.90
25640;DHT22;13497;48.322;16.204;2023-07-02T03:57:08;19.60;99.90
25640;DHT22;13497;48.322;16.204;2023-07-02T03:59:34;19.80;99.90
25640;DHT22;13497;48.322;16.204;2023-07-02T04:02:00;19.90;99.90
25640;DHT22;13497;48.322;16.204;2023-07-02T04:04:26;20.00;99.90
25640;DHT22;13497;48.322;16.204;2023-07-02T04:06:52;20.00;99.90
25640;DHT22;13497;48.322;16.204;2023-07-02T04:09:17;20.10;99.90
25640;DHT22;13497;48.322;16.204;2023-07-02T04:11:44;20.30;99.90
25640;DHT22;13497;48.322;16.204;2023-07-02T04:14:10;21.10;99.90
25640;DHT22;13497;48.322;16.204;2023-07-02T04:16:36;21.70;99.90
25640;DHT22;13497;48.322;16.204;2023-07-02T04:19:02;21.70;99.90
25640;DHT22;13497;48.322;16.204;2023-07-02T04:21:27;21.30;99.90
25640;DHT22;13497;48.322;16.204;2023-07-02T04:23:53;20.80;99.90
25640;DHT22;13497;48.322;16.204;2023-07-02T04:26:19;20.40;99.90
25640;DHT22;13497;48.322;16.204;2023-07-02T04:28:45;20.10;99.90
25640;DHT22;13497;48.322;16.204;2023-07-02T04:31:10;20.00;99.90
25640;DHT22;13497;48.322;16.204;2023-07-02T04:33:36;19.90;99.90
25640;DHT22;13497;48.322;16.204;2023-07-02T04:36:03;19.80;99.90
25640;DHT22;13497;48.322;16.204;2023-07-02T04:38:29;19.80;99.90
25640;DHT22;13497;48.322;16.204;2023-07-02T04:40:54;19.70;99.90
25640;DHT22;13497;48.322;16.204;2023-07-02T04:43:27;19.70;99.90
25640;DHT22;13497;48.322;16.204;2023-07-02T04:45:55;19.60;99.90
25640;DHT22;13497;48.322;16.204;2023-07-02T04:48:20;19.60;99.90
25640;DHT22;13497;48.322;16.204;2023-07-02T04:50:46;19.60;99.90
25640;DHT22;13497;48.322;16.204;2023-07-02T04:53:12;19.60;99.90
25640;DHT22;13497;48.322;16.204;2023-07-02T04:55:38;19.60;99.90
25640;DHT22;13497;48.322;16.204;2023-07-02T04:58:03;19.60;99.90
25640;DHT22;13497;48.322;16.204;2023-07-02T05:00:29;19.70;99.90
25640;DHT22;13497;48.322;16.204;2023-07-02T05:02:54;19.70;99.90
25640;DHT22;13497;48.322;16.204;2023-07-02T05:05:20;19.80;99.90
25640;DHT22;13497;48.322;16.204;2023-07-02T05:07:46;19.90;99.90
25640;DHT22;13497;48.322;16.204;2023-07-02T05:10:12;20.00;99.90
25640;DHT22;13497;48.322;16.204;2023-07-02T05:12:37;20.20;99.90
25640;DHT22;13497;48.322;16.204;2023-07-02T05:15:03;20.60;99.90
25640;DHT22;13497;48.322;16.204;2023-07-02T05:17:29;21.00;99.90
25640;DHT22;13497;48.322;16.204;2023-07-02T05:19:56;20.90;99.90
25640;DHT22;13497;48.322;16.204;2023-07-02T05:22:21;20.70;99.90
25640;DHT22;13497;48.322;16.204;2023-07-02T05:24:47;20.50;99.90
25640;DHT22;13497;48.322;16.204;2023-07-02T05:27:13;20.30;99.90
25640;DHT22;13497;48.322;16.204;2023-07-02T05:29:39;20.20;99.90
25640;DHT22;13497;48.322;16.204;2023-07-02T05:32:04;20.20;99.90
25640;DHT22;13497;48.322;16.204;2023-07-02T05:34:30;20.10;99.90
25640;DHT22;13497;48.322;16.204;2023-07-02T05:36:56;20.00;99.90
25640;DHT22;13497;48.322;16.204;2023-07-02T05:39:21;20.00;99.90
25640;DHT22;13497;48.322;16.204;2023-07-02T05:41:47;19.90;99.90
25640;DHT22;13497;48.322;16.204;2023-07-02T05:44:13;19.90;99.90
25640;DHT22;13497;48.322;16.204;2023-07-02T05:46:39;19.80;99.90
25640;DHT22;13497;48.322;16.204;2023-07-02T05:49:05;19.80;99.90
25640;DHT22;13497;48.322;16.204;2023-07-02T05:51:31;19.70;99.90
25640;DHT22;13497;48.322;16.204;2023-07-02T05:53:57;19.70;99.90
25640;DHT22;13497;48.322;16.204;2023-07-02T05:56:22;19.70;99.90
25640;DHT22;13497;48.322;16.204;2023-07-02T05:58:48;19.70;99.90
25640;DHT22;13497;48.322;16.204;2023-07-02T06:01:15;19.70;99.90
25640;DHT22;13497;48.322;16.204;2023-07-02T06:03:41;19.70;99.90
25640;DHT22;13497;48.322;16.204;2023-07-02T06:06:07;19.80;99.90
25640;DHT22;13497;48.322;16.204;2023-07-02T06:08:34;19.90;99.90
25640;DHT22;13497;48.322;16.204;2023-07-02T06:10:59;20.00;99.90
25640;DHT22;13497;48.322;16.204;2023-07-02T06:13:25;20.10;99.90
25640;DHT22;13497;48.322;16.204;2023-07-02T06:15:51;20.00;99.90
25640;DHT22;13497;48.322;16.204;2023-07-02T06:18:17;20.00;99.90
25640;DHT22;13497;48.322;16.204;2023-07-02T06:20:43;20.10;99.90
25640;DHT22;13497;48.322;16.204;2023-07-02T06:23:09;20.20;99.90
25640;DHT22;13497;48.322;16.204;2023-07-02T06:25:34;20.40;99.90
25640;DHT22;13497;48.322;16.204;2023-07-02T06:28:00;20.60;99.90
25640;DHT22;13497;48.322;16.204;2023-07-02T06:30:26;20.70;99.90
25640;DHT22;13497;48.322;16.204;2023-07-02T06:32:52;20.80;99.90
25640;DHT22;13497;48.322;16.204;2023-07-02T06:35:18;21.00;99.90
25640;DHT22;13497;48.322;16.204;2023-07-02T06:37:44;21.00;99.90
25640;DHT22;13497;48.322;16.204;2023-07-02T06:40:10;21.10;99.90
25640;DHT22;13497;48.322;16.204;2023-07-02T06:42:36;21.30;99.90
25640;DHT22;13497;48.322;16.204;2023-07-02T06:45:02;21.50;99.90
25640;DHT22;13497;48.322;16.204;2023-07-02T06:47:28;21.70;99.90
25640;DHT22;13497;48.322;16.204;2023-07-02T06:49:54;22.60;99.90
25640;DHT22;13497;48.322;16.204;2023-07-02T06:52:19;23.50;99.90
25640;DHT22;13497;48.322;16.204;2023-07-02T06:54:45;24.20;99.90
25640;DHT22;13497;48.322;16.204;2023-07-02T06:57:12;24.80;99.90
25640;DHT22;13497;48.322;16.204;2023-07-02T06:59:38;25.00;99.90
25640;DHT22;13497;48.322;16.204;2023-07-02T07:02:04;24.80;99.90
25640;DHT22;13497;48.322;16.204;2023-07-02T07:04:30;24.40;99.90
25640;DHT22;13497;48.322;16.204;2023-07-02T07:06:55;24.10;99.90
25640;DHT22;13497;48.322;16.204;2023-07-02T07:09:22;23.70;99.90
25640;DHT22;13497;48.322;16.204;2023-07-02T07:11:47;23.50;99.90
25640;DHT22;13497;48.322;16.204;2023-07-02T07:14:13;23.60;99.90
25640;DHT22;13497;48.322;16.204;2023-07-02T07:16:38;23.70;99.90
25640;DHT22;13497;48.322;16.204;2023-07-02T07:19:05;23.60;99.90
25640;DHT22;13497;48.322;16.204;2023-07-02T07:21:30;23.40;99.90
25640;DHT22;13497;48.322;16.204;2023-07-02T07:23:56;23.20;99.90
25640;DHT22;13497;48.322;16.204;2023-07-02T07:26:22;23.30;99.90
25640;DHT22;13497;48.322;16.204;2023-07-02T07:28:47;23.30;99.90
25640;DHT22;13497;48.322;16.204;2023-07-02T07:31:13;23.50;99.90
25640;DHT22;13497;48.322;16.204;2023-07-02T07:33:39;23.70;99.90
25640;DHT22;13497;48.322;16.204;2023-07-02T07:36:04;23.90;99.90
25640;DHT22;13497;48.322;16.204;2023-07-02T07:38:30;23.90;99.90
25640;DHT22;13497;48.322;16.204;2023-07-02T07:40:56;23.70;99.90
25640;DHT22;13497;48.322;16.204;2023-07-02T07:43:22;23.60;99.90
25640;DHT22;13497;48.322;16.204;2023-07-02T07:45:47;23.50;99.90
25640;DHT22;13497;48.322;16.204;2023-07-02T07:48:13;23.20;99.90
25640;DHT22;13497;48.322;16.204;2023-07-02T07:50:39;22.90;99.90
25640;DHT22;13497;48.322;16.204;2023-07-02T07:53:04;22.80;99.90
25640;DHT22;13497;48.322;16.204;2023-07-02T07:55:30;22.70;99.90
25640;DHT22;13497;48.322;16.204;2023-07-02T07:57:56;22.80;99.90
25640;DHT22;13497;48.322;16.204;2023-07-02T08:00:21;23.00;99.90
25640;DHT22;13497;48.322;16.204;2023-07-02T08:02:49;23.20;99.90
25640;DHT22;13497;48.322;16.204;2023-07-02T08:05:17;23.30;99.90
25640;DHT22;13497;48.322;16.204;2023-07-02T08:07:43;23.40;99.90
25640;DHT22;13497;48.322;16.204;2023-07-02T08:10:09;23.50;99.90
25640;DHT22;13497;48.322;16.204;2023-07-02T08:12:35;23.50;99.90
25640;DHT22;13497;48.322;16.204;2023-07-02T08:15:00;23.60;99.90
25640;DHT22;13497;48.322;16.204;2023-07-02T08:17:26;23.70;99.90
25640;DHT22;13497;48.322;16.204;2023-07-02T08:19:52;23.90;99.90
25640;DHT22;13497;48.322;16.204;2023-07-02T08:22:17;23.90;99.90
25640;DHT22;13497;48.322;16.204;2023-07-02T08:24:43;24.00;99.90
25640;DHT22;13497;48.322;16.204;2023-07-02T08:27:09;24.20;99.90
25640;DHT22;13497;48.322;16.204;2023-07-02T08:29:36;24.30;99.90
25640;DHT22;13497;48.322;16.204;2023-07-02T08:32:02;24.20;99.90
25640;DHT22;13497;48.322;16.204;2023-07-02T08:34:27;24.50;99.90
25640;DHT22;13497;48.322;16.204;2023-07-02T08:36:53;24.70;99.90
25640;DHT22;13497;48.322;16.204;2023-07-02T08:39:19;24.30;99.90
25640;DHT22;13497;48.322;16.204;2023-07-02T08:41:46;24.40;99.90
25640;DHT22;13497;48.322;16.204;2023-07-02T08:44:13;24.90;99.90
25640;DHT22;13497;48.322;16.204;2023-07-02T08:46:43;25.20;99.90
25640;DHT22;13497;48.322;16.204;2023-07-02T08:49:09;25.40;99.50
25640;DHT22;13497;48.322;16.204;2023-07-02T08:51:35;25.30;99.80
25640;DHT22;13497;48.322;16.204;2023-07-02T08:54:01;25.00;99.80
25640;DHT22;13497;48.322;16.204;2023-07-02T08:56:27;24.90;99.90
25640;DHT22;13497;48.322;16.204;2023-07-02T08:58:53;24.70;99.90
25640;DHT22;13497;48.322;16.204;2023-07-02T09:01:19;24.70;99.90
25640;DHT22;13497;48.322;16.204;2023-07-02T09:03:44;24.90;99.90
25640;DHT22;13497;48.322;16.204;2023-07-02T09:06:11;25.30;99.60
25640;DHT22;13497;48.322;16.204;2023-07-02T09:08:37;25.80;99.40
25640;DHT22;13497;48.322;16.204;2023-07-02T09:13:52;26.20;98.10
25640;DHT22;13497;48.322;16.204;2023-07-02T09:16:32;26.20;98.20
25640;DHT22;13497;48.322;16.204;2023-07-02T09:19:03;26.10;98.70
25640;DHT22;13497;48.322;16.204;2023-07-02T09:21:45;26.10;98.30
25640;DHT22;13497;48.322;16.204;2023-07-02T09:24:19;26.10;98.00
25640;DHT22;13497;48.322;16.204;2023-07-02T09:26:46;26.20;98.00
25640;DHT22;13497;48.322;16.204;2023-07-02T09:29:13;26.20;98.30
25640;DHT22;13497;48.322;16.204;2023-07-02T09:31:45;26.20;97.60
25640;DHT22;13497;48.322;16.204;2023-07-02T09:34:12;25.90;97.70
25640;DHT22;13497;48.322;16.204;2023-07-02T09:36:38;25.80;97.70
25640;DHT22;13497;48.322;16.204;2023-07-02T09:39:14;25.60;98.20
25640;DHT22;13497;48.322;16.204;2023-07-02T09:41:41;25.40;98.50
25640;DHT22;13497;48.322;16.204;2023-07-02T09:44:08;25.00;98.70
25640;DHT22;13497;48.322;16.204;2023-07-02T09:46:37;24.80;99.30
25640;DHT22;13497;48.322;16.204;2023-07-02T09:49:13;24.60;99.70
25640;DHT22;13497;48.322;16.204;2023-07-02T09:51:40;24.60;99.90
25640;DHT22;13497;48.322;16.204;2023-07-02T09:54:06;24.60;99.60
25640;DHT22;13497;48.322;16.204;2023-07-02T09:56:32;25.00;99.60
25640;DHT22;13497;48.322;16.204;2023-07-02T09:58:57;24.90;99.20
25640;DHT22;13497;48.322;16.204;2023-07-02T10:01:23;24.90;99.50
25640;DHT22;13497;48.322;16.204;2023-07-02T10:03:49;24.90;99.80
25640;DHT22;13497;48.322;16.204;2023-07-02T10:06:15;24.90;99.90
25640;DHT22;13497;48.322;16.204;2023-07-02T10:08:40;25.10;99.60
25640;DHT22;13497;48.322;16.204;2023-07-02T10:11:13;25.40;99.40
25640;DHT22;13497;48.322;16.204;2023-07-02T10:13:39;25.80;99.50
25640;DHT22;13497;48.322;16.204;2023-07-02T10:16:06;26.00;98.50
25640;DHT22;13497;48.322;16.204;2023-07-02T10:18:32;26.10;98.20
25640;DHT22;13497;48.322;16.204;2023-07-02T10:20:57;26.00;97.90
25640;DHT22;13497;48.322;16.204;2023-07-02T10:23:33;26.10;98.50
25640;DHT22;13497;48.322;16.204;2023-07-02T10:26:10;25.90;98.10
25640;DHT22;13497;48.322;16.204;2023-07-02T10:28:36;25.40;99.00
25640;DHT22;13497;48.322;16.204;2023-07-02T10:31:02;25.20;98.90
25640;DHT22;13497;48.322;16.204;2023-07-02T10:33:27;24.90;99.20
25640;DHT22;13497;48.322;16.204;2023-07-02T10:35:53;24.70;99.50
25640;DHT22;13497;48.322;16.204;2023-07-02T10:38:25;24.60;99.30
25640;DHT22;13497;48.322;16.204;2023-07-02T10:40:59;24.60;99.40
25640;DHT22;13497;48.322;16.204;2023-07-02T10:43:26;24.80;99.40
25640;DHT22;13497;48.322;16.204;2023-07-02T10:45:54;25.30;99.10
25640;DHT22;13497;48.322;16.204;2023-07-02T10:48:20;25.50;98.20
25640;DHT22;13497;48.322;16.204;2023-07-02T10:50:45;25.50;98.50
25640;DHT22;13497;48.322;16.204;2023-07-02T10:53:15;25.60;98.40
25640;DHT22;13497;48.322;16.204;2023-07-02T10:55:42;25.30;98.10
25640;DHT22;13497;48.322;16.204;2023-07-02T10:58:08;24.90;98.70
25640;DHT22;13497;48.322;16.204;2023-07-02T11:00:47;24.70;98.80
25640;DHT22;13497;48.322;16.204;2023-07-02T11:03:21;24.50;99.20
25640;DHT22;13497;48.322;16.204;2023-07-02T11:05:47;24.30;99.10
25640;DHT22;13497;48.322;16.204;2023-07-02T11:08:14;24.30;99.20
25640;DHT22;13497;48.322;16.204;2023-07-02T11:10:39;24.40;99.30
25640;DHT22;13497;48.322;16.204;2023-07-02T11:13:19;24.30;98.80
25640;DHT22;13497;48.322;16.204;2023-07-02T11:15:46;24.30;98.80
25640;DHT22;13497;48.322;16.204;2023-07-02T11:18:13;24.40;98.50
25640;DHT22;13497;48.322;16.204;2023-07-02T11:20:40;24.60;98.50
25640;DHT22;13497;48.322;16.204;2023-07-02T11:23:20;24.90;98.30
25640;DHT22;13497;48.322;16.204;2023-07-02T11:26:01;25.10;98.00
25640;DHT22;13497;48.322;16.204;2023-07-02T11:28:30;25.30;98.00
25640;DHT22;13497;48.322;16.204;2023-07-02T11:30:58;25.20;97.60
25640;DHT22;13497;48.322;16.204;2023-07-02T11:33:39;25.30;98.00
25640;DHT22;13497;48.322;16.204;2023-07-02T11:36:07;25.20;97.50
25640;DHT22;13497;48.322;16.204;2023-07-02T11:38:34;25.00;97.60
25640;DHT22;13497;48.322;16.204;2023-07-02T11:40:59;24.60;97.90
25640;DHT22;13497;48.322;16.204;2023-07-02T11:43:25;24.50;98.20
25640;DHT22;13497;48.322;16.204;2023-07-02T11:45:52;24.50;97.90
25640;DHT22;13497;48.322;16.204;2023-07-02T11:48:17;24.40;98.20
25640;DHT22;13497;48.322;16.204;2023-07-02T11:50:43;24.50;98.30
25640;DHT22;13497;48.322;16.204;2023-07-02T11:53:09;24.70;98.30
25640;DHT22;13497;48.322;16.204;2023-07-02T11:55:35;24.80;97.50
25640;DHT22;13497;48.322;16.204;2023-07-02T11:58:01;24.70;97.70
25640;DHT22;13497;48.322;16.204;2023-07-02T12:00:27;24.70;97.80
25640;DHT22;13497;48.322;16.204;2023-07-02T12:02:52;24.80;97.40
25640;DHT22;13497;48.322;16.204;2023-07-02T12:05:18;24.90;97.80
25640;DHT22;13497;48.322;16.204;2023-07-02T12:07:44;24.90;97.40
25640;DHT22;13497;48.322;16.204;2023-07-02T12:10:09;24.70;97.30
25640;DHT22;13497;48.322;16.204;2023-07-02T12:12:35;24.60;97.30
25640;DHT22;13497;48.322;16.204;2023-07-02T12:15:01;24.50;97.80
25640;DHT22;13497;48.322;16.204;2023-07-02T12:17:27;24.60;97.50
25640;DHT22;13497;48.322;16.204;2023-07-02T12:19:53;24.60;97.80
25640;DHT22;13497;48.322;16.204;2023-07-02T12:22:18;24.50;97.50
25640;DHT22;13497;48.322;16.204;2023-07-02T12:24:47;24.60;97.20
25640;DHT22;13497;48.322;16.204;2023-07-02T12:27:14;24.70;97.30
25640;DHT22;13497;48.322;16.204;2023-07-02T12:29:39;25.00;97.20
25640;DHT22;13497;48.322;16.204;2023-07-02T12:32:05;25.10;96.60
25640;DHT22;13497;48.322;16.204;2023-07-02T12:34:31;25.00;97.00
25640;DHT22;13497;48.322;16.204;2023-07-02T12:36:57;25.10;97.30
25640;DHT22;13497;48.322;16.204;2023-07-02T12:39:23;25.00;97.00
25640;DHT22;13497;48.322;16.204;2023-07-02T12:41:48;24.90;96.80
25640;DHT22;13497;48.322;16.204;2023-07-02T12:44:14;25.00;96.80
25640;DHT22;13497;48.322;16.204;2023-07-02T12:46:40;24.90;97.10
25640;DHT22;13497;48.322;16.204;2023-07-02T12:49:05;25.00;96.60
25640;DHT22;13497;48.322;16.204;2023-07-02T12:51:31;25.10;96.50
25640;DHT22;13497;48.322;16.204;2023-07-02T12:53:57;25.20;96.40
25640;DHT22;13497;48.322;16.204;2023-07-02T12:56:22;25.40;95.90
25640;DHT22;13497;48.322;16.204;2023-07-02T12:58:48;25.10;95.80
25640;DHT22;13497;48.322;16.204;2023-07-02T13:01:14;24.90;96.50
25640;DHT22;13497;48.322;16.204;2023-07-02T13:03:45;24.80;96.50
25640;DHT22;13497;48.322;16.204;2023-07-02T13:06:11;24.90;96.50
25640;DHT22;13497;48.322;16.204;2023-07-02T13:08:37;24.60;96.20
25640;DHT22;13497;48.322;16.204;2023-07-02T13:11:02;24.30;96.60
25640;DHT22;13497;48.322;16.204;2023-07-02T13:13:28;24.10;97.40
25640;DHT22;13497;48.322;16.204;2023-07-02T13:15:54;24.00;97.00
25640;DHT22;13497;48.322;16.204;2023-07-02T13:18:20;23.90;97.60
25640;DHT22;13497;48.322;16.204;2023-07-02T13:20:45;23.90;97.90
25640;DHT22;13497;48.322;16.204;2023-07-02T13:23:11;23.70;97.70
25640;DHT22;13497;48.322;16.204;2023-07-02T13:25:37;23.80;98.10
25640;DHT22;13497;48.322;16.204;2023-07-02T13:28:02;23.90;97.80
25640;DHT22;13497;48.322;16.204;2023-07-02T13:30:28;23.80;97.70
25640;DHT22;13497;48.322;16.204;2023-07-02T13:32:56;23.90;98.00
25640;DHT22;13497;48.322;16.204;2023-07-02T13:35:22;23.80;97.90
25640;DHT22;13497;48.322;16.204;2023-07-02T13:37:48;23.90;98.30
25640;DHT22;13497;48.322;16.204;2023-07-02T13:40:14;24.10;98.10
25640;DHT22;13497;48.322;16.204;2023-07-02T13:42:41;24.00;97.80
25640;DHT22;13497;48.322;16.204;2023-07-02T13:45:08;23.80;97.80
25640;DHT22;13497;48.322;16.204;2023-07-02T13:47:34;23.90;97.70
25640;DHT22;13497;48.322;16.204;2023-07-02T13:50:01;23.90;97.80
25640;DHT22;13497;48.322;16.204;2023-07-02T13:52:27;23.90;98.10
25640;DHT22;13497;48.322;16.204;2023-07-02T13:54:52;24.20;97.80
25640;DHT22;13497;48.322;16.204;2023-07-02T13:57:18;24.10;97.90
25640;DHT22;13497;48.322;16.204;2023-07-02T13:59:44;24.00;98.00
25640;DHT22;13497;48.322;16.204;2023-07-02T14:02:09;24.10;97.40
25640;DHT22;13497;48.322;16.204;2023-07-02T14:04:35;23.90;97.60
25640;DHT22;13497;48.322;16.204;2023-07-02T14:07:03;23.80;98.00
25640;DHT22;13497;48.322;16.204;2023-07-02T14:09:29;23.80;98.20
25640;DHT22;13497;48.322;16.204;2023-07-02T14:11:54;24.00;98.40
25640;DHT22;13497;48.322;16.204;2023-07-02T14:14:20;24.00;97.90
25640;DHT22;13497;48.322;16.204;2023-07-02T14:16:45;23.90;97.40
25640;DHT22;13497;48.322;16.204;2023-07-02T14:19:11;23.90;97.80
25640;DHT22;13497;48.322;16.204;2023-07-02T14:21:37;23.80;97.30
25640;DHT22;13497;48.322;16.204;2023-07-02T14:24:03;23.80;98.10
25640;DHT22;13497;48.322;16.204;2023-07-02T14:26:30;23.80;97.90
25640;DHT22;13497;48.322;16.204;2023-07-02T14:28:56;23.80;98.20
25640;DHT22;13497;48.322;16.204;2023-07-02T14:31:23;23.90;97.70
25640;DHT22;13497;48.322;16.204;2023-07-02T14:33:49;24.00;97.50
25640;DHT22;13497;48.322;16.204;2023-07-02T14:36:14;23.80;97.40
25640;DHT22;13497;48.322;16.204;2023-07-02T14:38:40;23.70;97.50
25640;DHT22;13497;48.322;16.204;2023-07-02T14:41:06;23.80;97.20
25640;DHT22;13497;48.322;16.204;2023-07-02T14:43:32;23.80;96.90
25640;DHT22;13497;48.322;16.204;2023-07-02T14:46:00;23.70;97.20
25640;DHT22;13497;48.322;16.204;2023-07-02T14:48:26;23.70;96.90
25640;DHT22;13497;48.322;16.204;2023-07-02T14:50:57;23.80;97.40
25640;DHT22;13497;48.322;16.204;2023-07-02T14:53:25;23.80;96.50
25640;DHT22;13497;48.322;16.204;2023-07-02T14:55:54;23.70;96.70
25640;DHT22;13497;48.322;16.204;2023-07-02T14:58:20;23.80;96.90
25640;DHT22;13497;48.322;16.204;2023-07-02T15:00:48;23.80;96.60
25640;DHT22;13497;48.322;16.204;2023-07-02T15:03:14;23.60;96.90
25640;DHT22;13497;48.322;16.204;2023-07-02T15:05:41;23.70;96.50
25640;DHT22;13497;48.322;16.204;2023-07-02T15:08:08;23.70;96.50
25640;DHT22;13497;48.322;16.204;2023-07-02T15:10:35;23.80;96.70
25640;DHT22;13497;48.322;16.204;2023-07-02T15:13:07;23.80;96.50
25640;DHT22;13497;48.322;16.204;2023-07-02T15:15:33;23.90;96.60